sensor_id;sensor_type;location;lat;lon;timestamp;P1;durP1;ratioP1;P2;durP2;ratioP2
60239;SDS011;46102;39.012;-7.064;2024-01-10T00:00:30;2.42;;;2.00;;
60239;SDS011;46102;39.012;-7.064;2024-01-10T00:02:31;1.83;;;1.73;;
60239;SDS011;46102;39.012;-7.064;2024-01-10T00:04:32;2.50;;;1.77;;
60239;SDS011;46102;39.012;-7.064;2024-01-10T00:06:32;2.20;;;2.00;;
60239;SDS011;46102;39.012;-7.064;2024-01-10T00:08:33;5.72;;;2.22;;
60239;SDS011;46102;39.012;-7.064;2024-01-10T00:10:34;4.40;;;3.90;;
60239;SDS011;46102;39.012;-7.064;2024-01-10T00:12:35;9.23;;;5.10;;
60239;SDS011;46102;39.012;-7.064;2024-01-10T00:14:36;5.85;;;4.93;;
60239;SDS011;46102;39.012;-7.064;2024-01-10T00:16:37;5.47;;;5.03;;
60239;SDS011;46102;39.012;-7.064;2024-01-10T00:18:38;7.60;;;4.93;;
60239;SDS011;46102;39.012;-7.064;2024-01-10T00:20:40;6.47;;;4.45;;
60239;SDS011;46102;39.012;-7.064;2024-01-10T00:22:41;3.78;;;3.00;;
60239;SDS011;46102;39.012;-7.064;2024-01-10T00:24:42;3.10;;;2.90;;
60239;SDS011;46102;39.012;-7.064;2024-01-10T00:26:42;3.25;;;2.97;;
60239;SDS011;46102;39.012;-7.064;2024-01-10T00:28:43;3.03;;;2.60;;
60239;SDS011;46102;39.012;-7.064;2024-01-10T00:30:46;4.10;;;2.75;;
60239;SDS011;46102;39.012;-7.064;2024-01-10T00:32:49;4.63;;;2.20;;
60239;SDS011;46102;39.012;-7.064;2024-01-10T00:34:50;2.58;;;2.38;;
60239;SDS011;46102;39.012;-7.064;2024-01-10T00:36:51;3.70;;;3.00;;
60239;SDS011;46102;39.012;-7.064;2024-01-10T00:38:52;3.20;;;2.90;;
60239;SDS011;46102;39.012;-7.064;2024-01-10T00:40:52;4.82;;;3.10;;
60239;SDS011;46102;39.012;-7.064;2024-01-10T00:42:53;5.68;;;2.97;;
60239;SDS011;46102;39.012;-7.064;2024-01-10T00:44:54;4.93;;;2.67;;
60239;SDS011;46102;39.012;-7.064;2024-01-10T00:46:55;3.58;;;3.05;;
60239;SDS011;46102;39.012;-7.064;2024-01-10T00:48:55;4.85;;;3.83;;
60239;SDS011;46102;39.012;-7.064;2024-01-10T00:50:56;4.38;;;3.58;;
60239;SDS011;46102;39.012;-7.064;2024-01-10T00:52:57;8.73;;;3.40;;
60239;SDS011;46102;39.012;-7.064;2024-01-10T00:54:58;4.20;;;2.70;;
60239;SDS011;46102;39.012;-7.064;2024-01-10T00:56:58;2.75;;;2.53;;
60239;SDS011;46102;39.012;-7.064;2024-01-10T00:58:59;4.30;;;2.65;;
60239;SDS011;46102;39.012;-7.064;2024-01-10T01:01:00;2.60;;;2.40;;
60239;SDS011;46102;39.012;-7.064;2024-01-10T01:03:01;2.97;;;2.67;;
60239;SDS011;46102;39.012;-7.064;2024-01-10T01:05:02;4.85;;;2.80;;
60239;SDS011;46102;39.012;-7.064;2024-01-10T01:07:03;3.63;;;2.90;;
60239;SDS011;46102;39.012;-7.064;2024-01-10T01:09:04;2.47;;;2.28;;
60239;SDS011;46102;39.012;-7.064;2024-01-10T01:11:04;7.43;;;4.25;;
60239;SDS011;46102;39.012;-7.064;2024-01-10T01:13:06;4.68;;;3.70;;
60239;SDS011;46102;39.012;-7.064;2024-01-10T01:15:07;6.82;;;4.45;;
60239;SDS011;46102;39.012;-7.064;2024-01-10T01:17:08;7.03;;;4.35;;
60239;SDS011;46102;39.012;-7.064;2024-01-10T01:19:08;6.97;;;4.65;;
60239;SDS011;46102;39.012;-7.064;2024-01-10T01:21:09;6.97;;;3.75;;
60239;SDS011;46102;39.012;-7.064;2024-01-10T01:23:10;4.03;;;3.45;;
60239;SDS011;46102;39.012;-7.064;2024-01-10T01:25:11;3.70;;;2.90;;
60239;SDS011;46102;39.012;-7.064;2024-01-10T01:27:11;3.88;;;2.42;;
60239;SDS011;46102;39.012;-7.064;2024-01-10T01:29:12;3.47;;;2.80;;
60239;SDS011;46102;39.012;-7.064;2024-01-10T01:31:13;3.33;;;2.53;;
60239;SDS011;46102;39.012;-7.064;2024-01-10T01:33:14;3.40;;;2.10;;
60239;SDS011;46102;39.012;-7.064;2024-01-10T01:35:14;2.78;;;2.05;;
60239;SDS011;46102;39.012;-7.064;2024-01-10T01:37:21;2.38;;;1.90;;
60239;SDS011;46102;39.012;-7.064;2024-01-10T01:39:22;3.63;;;1.85;;
60239;SDS011;46102;39.012;-7.064;2024-01-10T01:41:23;2.08;;;1.95;;
60239;SDS011;46102;39.012;-7.064;2024-01-10T01:43:24;2.70;;;2.15;;
60239;SDS011;46102;39.012;-7.064;2024-01-10T01:45:26;3.05;;;1.63;;
60239;SDS011;46102;39.012;-7.064;2024-01-10T01:47:27;2.22;;;2.03;;
60239;SDS011;46102;39.012;-7.064;2024-01-10T01:49:27;2.00;;;1.90;;
60239;SDS011;46102;39.012;-7.064;2024-01-10T01:51:29;2.85;;;2.30;;
60239;SDS011;46102;39.012;-7.064;2024-01-10T01:53:35;6.30;;;2.55;;
60239;SDS011;46102;39.012;-7.064;2024-01-10T01:55:37;3.67;;;2.20;;
60239;SDS011;46102;39.012;-7.064;2024-01-10T01:57:37;4.38;;;2.10;;
60239;SDS011;46102;39.012;-7.064;2024-01-10T01:59:38;2.05;;;1.88;;
60239;SDS011;46102;39.012;-7.064;2024-01-10T02:01:40;1.63;;;1.52;;
60239;SDS011;46102;39.012;-7.064;2024-01-10T02:03:41;3.33;;;2.17;;
60239;SDS011;46102;39.012;-7.064;2024-01-10T02:05:42;3.63;;;2.22;;
60239;SDS011;46102;39.012;-7.064;2024-01-10T02:07:43;2.25;;;2.05;;
60239;SDS011;46102;39.012;-7.064;2024-01-10T02:09:43;3.33;;;2.08;;
60239;SDS011;46102;39.012;-7.064;2024-01-10T02:11:44;3.42;;;2.25;;
60239;SDS011;46102;39.012;-7.064;2024-01-10T02:13:45;3.13;;;2.92;;
60239;SDS011;46102;39.012;-7.064;2024-01-10T02:15:46;4.80;;;3.10;;
60239;SDS011;46102;39.012;-7.064;2024-01-10T02:17:47;5.38;;;3.42;;
60239;SDS011;46102;39.012;-7.064;2024-01-10T02:19:47;5.95;;;3.10;;
60239;SDS011;46102;39.012;-7.064;2024-01-10T02:21:48;3.28;;;2.90;;
60239;SDS011;46102;39.012;-7.064;2024-01-10T02:23:49;5.53;;;3.28;;
60239;SDS011;46102;39.012;-7.064;2024-01-10T02:25:50;3.38;;;2.65;;
60239;SDS011;46102;39.012;-7.064;2024-01-10T02:27:50;3.35;;;2.90;;
60239;SDS011;46102;39.012;-7.064;2024-01-10T02:29:51;4.38;;;3.25;;
60239;SDS011;46102;39.012;-7.064;2024-01-10T02:31:53;2.30;;;2.20;;
60239;SDS011;46102;39.012;-7.064;2024-01-10T02:33:54;3.25;;;2.78;;
60239;SDS011;46102;39.012;-7.064;2024-01-10T02:35:55;3.58;;;2.33;;
60239;SDS011;46102;39.012;-7.064;2024-01-10T02:37:56;3.05;;;2.75;;
60239;SDS011;46102;39.012;-7.064;2024-01-10T02:39:56;5.05;;;2.95;;
60239;SDS011;46102;39.012;-7.064;2024-01-10T02:41:57;2.78;;;2.58;;
60239;SDS011;46102;39.012;-7.064;2024-01-10T02:43:58;3.75;;;3.33;;
60239;SDS011;46102;39.012;-7.064;2024-01-10T02:45:59;3.40;;;3.10;;
60239;SDS011;46102;39.012;-7.064;2024-01-10T02:48:00;3.92;;;3.20;;
60239;SDS011;46102;39.012;-7.064;2024-01-10T02:50:00;2.75;;;2.55;;
60239;SDS011;46102;39.012;-7.064;2024-01-10T02:52:01;6.78;;;3.00;;
60239;SDS011;46102;39.012;-7.064;2024-01-10T02:54:02;2.97;;;2.15;;
60239;SDS011;46102;39.012;-7.064;2024-01-10T02:56:03;2.63;;;2.42;;
60239;SDS011;46102;39.012;-7.064;2024-01-10T02:58:04;3.13;;;2.80;;
60239;SDS011;46102;39.012;-7.064;2024-01-10T03:00:05;3.83;;;3.50;;
60239;SDS011;46102;39.012;-7.064;2024-01-10T03:02:06;3.28;;;2.97;;
60239;SDS011;46102;39.012;-7.064;2024-01-10T03:04:07;4.80;;;3.38;;
60239;SDS011;46102;39.012;-7.064;2024-01-10T03:06:08;4.05;;;3.65;;
60239;SDS011;46102;39.012;-7.064;2024-01-10T03:08:09;4.95;;;3.67;;
60239;SDS011;46102;39.012;-7.064;2024-01-10T03:10:10;6.55;;;3.97;;
60239;SDS011;46102;39.012;-7.064;2024-01-10T03:12:11;4.60;;;4.13;;
60239;SDS011;46102;39.012;-7.064;2024-01-10T03:14:12;4.70;;;4.18;;
60239;SDS011;46102;39.012;-7.064;2024-01-10T03:16:13;6.00;;;3.85;;
60239;SDS011;46102;39.012;-7.064;2024-01-10T03:18:14;6.90;;;4.85;;
60239;SDS011;46102;39.012;-7.064;2024-01-10T03:20:15;5.40;;;4.78;;
60239;SDS011;46102;39.012;-7.064;2024-01-10T03:22:16;6.68;;;5.28;;
60239;SDS011;46102;39.012;-7.064;2024-01-10T03:24:17;5.50;;;4.68;;
60239;SDS011;46102;39.012;-7.064;2024-01-10T03:26:17;5.40;;;4.90;;
60239;SDS011;46102;39.012;-7.064;2024-01-10T03:28:18;7.60;;;4.30;;
60239;SDS011;46102;39.012;-7.064;2024-01-10T03:30:19;6.13;;;4.50;;
60239;SDS011;46102;39.012;-7.064;2024-01-10T03:32:20;5.05;;;4.07;;
60239;SDS011;46102;39.012;-7.064;2024-01-10T03:34:21;6.13;;;4.22;;
60239;SDS011;46102;39.012;-7.064;2024-01-10T03:36:21;11.45;;;4.43;;
60239;SDS011;46102;39.012;-7.064;2024-01-10T03:38:22;5.25;;;4.45;;
60239;SDS011;46102;39.012;-7.064;2024-01-10T03:40:23;7.72;;;4.55;;
60239;SDS011;46102;39.012;-7.064;2024-01-10T03:42:24;6.07;;;4.38;;
60239;SDS011;46102;39.012;-7.064;2024-01-10T03:44:25;5.43;;;4.20;;
60239;SDS011;46102;39.012;-7.064;2024-01-10T03:46:27;5.07;;;3.90;;
60239;SDS011;46102;39.012;-7.064;2024-01-10T03:48:28;6.35;;;4.22;;
60239;SDS011;46102;39.012;-7.064;2024-01-10T03:50:28;6.40;;;3.70;;
60239;SDS011;46102;39.012;-7.064;2024-01-10T03:52:29;4.18;;;3.78;;
60239;SDS011;46102;39.012;-7.064;2024-01-10T03:54:30;4.43;;;4.03;;
60239;SDS011;46102;39.012;-7.064;2024-01-10T03:56:31;6.05;;;4.45;;
60239;SDS011;46102;39.012;-7.064;2024-01-10T03:58:31;4.20;;;3.80;;
60239;SDS011;46102;39.012;-7.064;2024-01-10T04:00:32;6.82;;;4.70;;
60239;SDS011;46102;39.012;-7.064;2024-01-10T04:02:33;8.10;;;4.30;;
60239;SDS011;46102;39.012;-7.064;2024-01-10T04:04:36;5.25;;;4.43;;
60239;SDS011;46102;39.012;-7.064;2024-01-10T04:06:38;4.75;;;4.35;;
60239;SDS011;46102;39.012;-7.064;2024-01-10T04:08:38;5.50;;;4.57;;
60239;SDS011;46102;39.012;-7.064;2024-01-10T04:10:39;5.22;;;4.55;;
60239;SDS011;46102;39.012;-7.064;2024-01-10T04:12:40;6.63;;;4.50;;
60239;SDS011;46102;39.012;-7.064;2024-01-10T04:14:41;7.03;;;4.85;;
60239;SDS011;46102;39.012;-7.064;2024-01-10T04:16:41;7.07;;;5.03;;
60239;SDS011;46102;39.012;-7.064;2024-01-10T04:18:42;5.05;;;3.90;;
60239;SDS011;46102;39.012;-7.064;2024-01-10T04:20:43;5.03;;;4.43;;
60239;SDS011;46102;39.012;-7.064;2024-01-10T04:22:44;6.68;;;4.45;;
60239;SDS011;46102;39.012;-7.064;2024-01-10T04:24:45;5.40;;;4.90;;
60239;SDS011;46102;39.012;-7.064;2024-01-10T04:26:45;4.93;;;4.05;;
60239;SDS011;46102;39.012;-7.064;2024-01-10T04:28:46;5.22;;;4.57;;
60239;SDS011;46102;39.012;-7.064;2024-01-10T04:30:47;5.60;;;4.40;;
60239;SDS011;46102;39.012;-7.064;2024-01-10T04:32:48;7.88;;;4.82;;
60239;SDS011;46102;39.012;-7.064;2024-01-10T04:34:49;9.77;;;4.88;;
60239;SDS011;46102;39.012;-7.064;2024-01-10T04:36:50;9.50;;;5.75;;
60239;SDS011;46102;39.012;-7.064;2024-01-10T04:38:51;10.18;;;6.13;;
60239;SDS011;46102;39.012;-7.064;2024-01-10T04:40:52;10.88;;;5.13;;
60239;SDS011;46102;39.012;-7.064;2024-01-10T04:42:53;5.93;;;5.13;;
60239;SDS011;46102;39.012;-7.064;2024-01-10T04:44:54;7.32;;;5.70;;
60239;SDS011;46102;39.012;-7.064;2024-01-10T04:46:55;8.85;;;5.22;;
60239;SDS011;46102;39.012;-7.064;2024-01-10T04:48:56;7.78;;;5.65;;
60239;SDS011;46102;39.012;-7.064;2024-01-10T04:50:56;8.32;;;7.15;;
60239;SDS011;46102;39.012;-7.064;2024-01-10T04:52:57;12.60;;;6.50;;
60239;SDS011;46102;39.012;-7.064;2024-01-10T04:54:58;9.75;;;7.38;;
60239;SDS011;46102;39.012;-7.064;2024-01-10T04:56:59;21.73;;;10.73;;
60239;SDS011;46102;39.012;-7.064;2024-01-10T04:58:59;13.48;;;7.90;;
60239;SDS011;46102;39.012;-7.064;2024-01-10T05:01:00;9.77;;;6.57;;
60239;SDS011;46102;39.012;-7.064;2024-01-10T05:03:01;12.25;;;6.25;;
60239;SDS011;46102;39.012;-7.064;2024-01-10T05:05:02;11.25;;;6.07;;
60239;SDS011;46102;39.012;-7.064;2024-01-10T05:07:04;9.45;;;5.68;;
60239;SDS011;46102;39.012;-7.064;2024-01-10T05:09:05;11.95;;;6.72;;
60239;SDS011;46102;39.012;-7.064;2024-01-10T05:11:06;10.90;;;7.20;;
60239;SDS011;46102;39.012;-7.064;2024-01-10T05:13:07;15.00;;;8.50;;
60239;SDS011;46102;39.012;-7.064;2024-01-10T05:15:08;13.65;;;6.95;;
60239;SDS011;46102;39.012;-7.064;2024-01-10T05:17:09;11.82;;;7.05;;
60239;SDS011;46102;39.012;-7.064;2024-01-10T05:19:10;12.85;;;6.63;;
60239;SDS011;46102;39.012;-7.064;2024-01-10T05:21:10;8.10;;;6.22;;
60239;SDS011;46102;39.012;-7.064;2024-01-10T05:23:11;11.68;;;5.95;;
60239;SDS011;46102;39.012;-7.064;2024-01-10T05:25:12;7.55;;;5.70;;
60239;SDS011;46102;39.012;-7.064;2024-01-10T05:27:13;9.85;;;6.45;;
60239;SDS011;46102;39.012;-7.064;2024-01-10T05:29:13;11.30;;;6.03;;
60239;SDS011;46102;39.012;-7.064;2024-01-10T05:31:14;6.80;;;5.35;;
60239;SDS011;46102;39.012;-7.064;2024-01-10T05:33:15;7.38;;;5.32;;
60239;SDS011;46102;39.012;-7.064;2024-01-10T05:35:16;9.23;;;5.45;;
60239;SDS011;46102;39.012;-7.064;2024-01-10T05:37:17;7.40;;;5.70;;
60239;SDS011;46102;39.012;-7.064;2024-01-10T05:39:17;7.65;;;4.78;;
60239;SDS011;46102;39.012;-7.064;2024-01-10T05:41:20;6.80;;;4.65;;
60239;SDS011;46102;39.012;-7.064;2024-01-10T05:43:21;6.18;;;4.95;;
60239;SDS011;46102;39.012;-7.064;2024-01-10T05:45:22;6.47;;;4.72;;
60239;SDS011;46102;39.012;-7.064;2024-01-10T05:47:23;4.95;;;4.30;;
60239;SDS011;46102;39.012;-7.064;2024-01-10T05:49:24;6.78;;;4.65;;
60239;SDS011;46102;39.012;-7.064;2024-01-10T05:51:24;10.23;;;6.07;;
60239;SDS011;46102;39.012;-7.064;2024-01-10T05:53:25;12.52;;;5.93;;
60239;SDS011;46102;39.012;-7.064;2024-01-10T05:55:26;7.55;;;5.20;;
60239;SDS011;46102;39.012;-7.064;2024-01-10T05:57:27;7.30;;;5.38;;
60239;SDS011;46102;39.012;-7.064;2024-01-10T05:59:28;6.53;;;4.97;;
60239;SDS011;46102;39.012;-7.064;2024-01-10T06:01:30;5.78;;;5.07;;
60239;SDS011;46102;39.012;-7.064;2024-01-10T06:03:31;6.82;;;4.78;;
60239;SDS011;46102;39.012;-7.064;2024-01-10T06:05:32;5.50;;;4.95;;
60239;SDS011;46102;39.012;-7.064;2024-01-10T06:07:33;7.57;;;5.07;;
60239;SDS011;46102;39.012;-7.064;2024-01-10T06:09:34;4.85;;;4.40;;
60239;SDS011;46102;39.012;-7.064;2024-01-10T06:11:34;5.70;;;5.05;;
60239;SDS011;46102;39.012;-7.064;2024-01-10T06:13:41;6.15;;;4.70;;
60239;SDS011;46102;39.012;-7.064;2024-01-10T06:15:41;8.13;;;5.13;;
60239;SDS011;46102;39.012;-7.064;2024-01-10T06:17:42;6.78;;;4.85;;
60239;SDS011;46102;39.012;-7.064;2024-01-10T06:19:43;6.05;;;5.35;;
60239;SDS011;46102;39.012;-7.064;2024-01-10T06:21:44;5.82;;;4.40;;
60239;SDS011;46102;39.012;-7.064;2024-01-10T06:23:45;5.88;;;5.03;;
60239;SDS011;46102;39.012;-7.064;2024-01-10T06:25:45;4.78;;;4.45;;
60239;SDS011;46102;39.012;-7.064;2024-01-10T06:27:46;7.22;;;5.00;;
60239;SDS011;46102;39.012;-7.064;2024-01-10T06:29:47;5.82;;;4.60;;
60239;SDS011;46102;39.012;-7.064;2024-01-10T06:31:48;6.03;;;4.22;;
60239;SDS011;46102;39.012;-7.064;2024-01-10T06:33:48;4.10;;;3.80;;
60239;SDS011;46102;39.012;-7.064;2024-01-10T06:35:49;4.95;;;4.55;;
60239;SDS011;46102;39.012;-7.064;2024-01-10T06:37:50;4.45;;;4.07;;
60239;SDS011;46102;39.012;-7.064;2024-01-10T06:39:51;4.43;;;4.03;;
60239;SDS011;46102;39.012;-7.064;2024-01-10T06:41:51;6.57;;;4.20;;
60239;SDS011;46102;39.012;-7.064;2024-01-10T06:43:53;5.28;;;4.32;;
60239;SDS011;46102;39.012;-7.064;2024-01-10T06:45:54;7.00;;;5.28;;
60239;SDS011;46102;39.012;-7.064;2024-01-10T06:47:55;4.30;;;3.90;;
60239;SDS011;46102;39.012;-7.064;2024-01-10T06:49:56;8.93;;;3.92;;
60239;SDS011;46102;39.012;-7.064;2024-01-10T06:51:57;4.45;;;3.90;;
60239;SDS011;46102;39.012;-7.064;2024-01-10T06:54:00;4.63;;;4.20;;
60239;SDS011;46102;39.012;-7.064;2024-01-10T06:56:04;5.75;;;4.72;;
60239;SDS011;46102;39.012;-7.064;2024-01-10T06:58:05;5.05;;;4.15;;
60239;SDS011;46102;39.012;-7.064;2024-01-10T07:00:06;6.53;;;4.45;;
60239;SDS011;46102;39.012;-7.064;2024-01-10T07:02:11;6.95;;;4.78;;
60239;SDS011;46102;39.012;-7.064;2024-01-10T07:04:11;4.82;;;4.03;;
60239;SDS011;46102;39.012;-7.064;2024-01-10T07:06:12;4.38;;;3.97;;
60239;SDS011;46102;39.012;-7.064;2024-01-10T07:08:15;6.22;;;4.75;;
60239;SDS011;46102;39.012;-7.064;2024-01-10T07:10:17;5.82;;;4.43;;
60239;SDS011;46102;39.012;-7.064;2024-01-10T07:12:17;6.13;;;4.90;;
60239;SDS011;46102;39.012;-7.064;2024-01-10T07:14:18;6.53;;;4.20;;
60239;SDS011;46102;39.012;-7.064;2024-01-10T07:16:19;4.82;;;3.97;;
60239;SDS011;46102;39.012;-7.064;2024-01-10T07:18:20;5.93;;;5.22;;
60239;SDS011;46102;39.012;-7.064;2024-01-10T07:20:21;7.30;;;4.25;;
60239;SDS011;46102;39.012;-7.064;2024-01-10T07:22:24;8.68;;;5.50;;
60239;SDS011;46102;39.012;-7.064;2024-01-10T07:24:25;7.13;;;5.47;;
60239;SDS011;46102;39.012;-7.064;2024-01-10T07:26:25;7.88;;;5.32;;
60239;SDS011;46102;39.012;-7.064;2024-01-10T07:28:27;9.05;;;6.13;;
60239;SDS011;46102;39.012;-7.064;2024-01-10T07:30:28;10.25;;;6.30;;
60239;SDS011;46102;39.012;-7.064;2024-01-10T07:32:33;6.65;;;5.80;;
60239;SDS011;46102;39.012;-7.064;2024-01-10T07:34:34;10.48;;;5.82;;
60239;SDS011;46102;39.012;-7.064;2024-01-10T07:36:40;8.90;;;6.05;;
60239;SDS011;46102;39.012;-7.064;2024-01-10T07:38:42;9.90;;;6.03;;
60239;SDS011;46102;39.012;-7.064;2024-01-10T07:40:43;8.48;;;5.88;;
60239;SDS011;46102;39.012;-7.064;2024-01-10T07:42:44;8.75;;;5.97;;
60239;SDS011;46102;39.012;-7.064;2024-01-10T07:44:45;7.88;;;5.47;;
60239;SDS011;46102;39.012;-7.064;2024-01-10T07:46:46;6.60;;;5.47;;
60239;SDS011;46102;39.012;-7.064;2024-01-10T07:48:47;7.95;;;5.70;;
60239;SDS011;46102;39.012;-7.064;2024-01-10T07:50:48;9.80;;;5.55;;
60239;SDS011;46102;39.012;-7.064;2024-01-10T07:52:48;7.72;;;5.88;;
60239;SDS011;46102;39.012;-7.064;2024-01-10T07:54:49;10.65;;;6.25;;
60239;SDS011;46102;39.012;-7.064;2024-01-10T07:56:50;12.05;;;7.15;;
60239;SDS011;46102;39.012;-7.064;2024-01-10T07:58:51;8.45;;;6.90;;
60239;SDS011;46102;39.012;-7.064;2024-01-10T08:00:51;8.43;;;7.10;;
60239;SDS011;46102;39.012;-7.064;2024-01-10T08:02:52;11.45;;;7.13;;
60239;SDS011;46102;39.012;-7.064;2024-01-10T08:04:53;9.00;;;6.75;;
60239;SDS011;46102;39.012;-7.064;2024-01-10T08:06:54;14.38;;;8.77;;
60239;SDS011;46102;39.012;-7.064;2024-01-10T08:08:55;23.92;;;13.15;;
60239;SDS011;46102;39.012;-7.064;2024-01-10T08:10:56;15.48;;;9.52;;
60239;SDS011;46102;39.012;-7.064;2024-01-10T08:12:57;15.48;;;8.38;;
60239;SDS011;46102;39.012;-7.064;2024-01-10T08:14:58;13.60;;;7.35;;
60239;SDS011;46102;39.012;-7.064;2024-01-10T08:16:58;26.55;;;6.80;;
60239;SDS011;46102;39.012;-7.064;2024-01-10T08:19:00;10.88;;;6.72;;
60239;SDS011;46102;39.012;-7.064;2024-01-10T08:21:01;7.20;;;6.05;;
60239;SDS011;46102;39.012;-7.064;2024-01-10T08:23:02;8.27;;;6.50;;
60239;SDS011;46102;39.012;-7.064;2024-01-10T08:25:03;8.45;;;6.47;;
60239;SDS011;46102;39.012;-7.064;2024-01-10T08:27:04;9.75;;;7.05;;
60239;SDS011;46102;39.012;-7.064;2024-01-10T08:29:05;7.45;;;6.20;;
60239;SDS011;46102;39.012;-7.064;2024-01-10T08:31:07;12.77;;;8.52;;
60239;SDS011;46102;39.012;-7.064;2024-01-10T08:33:07;10.98;;;7.40;;
60239;SDS011;46102;39.012;-7.064;2024-01-10T08:35:08;10.68;;;7.50;;
60239;SDS011;46102;39.012;-7.064;2024-01-10T08:37:09;13.40;;;7.35;;
60239;SDS011;46102;39.012;-7.064;2024-01-10T08:39:10;8.13;;;5.93;;
60239;SDS011;46102;39.012;-7.064;2024-01-10T08:41:11;9.40;;;6.65;;
60239;SDS011;46102;39.012;-7.064;2024-01-10T08:43:12;12.68;;;6.82;;
60239;SDS011;46102;39.012;-7.064;2024-01-10T08:45:13;9.32;;;5.72;;
60239;SDS011;46102;39.012;-7.064;2024-01-10T08:47:15;9.90;;;5.55;;
60239;SDS011;46102;39.012;-7.064;2024-01-10T08:49:15;8.13;;;5.75;;
60239;SDS011;46102;39.012;-7.064;2024-01-10T08:51:17;6.53;;;5.03;;
60239;SDS011;46102;39.012;-7.064;2024-01-10T08:53:17;7.28;;;5.32;;
60239;SDS011;46102;39.012;-7.064;2024-01-10T08:55:18;8.25;;;5.78;;
60239;SDS011;46102;39.012;-7.064;2024-01-10T08:57:19;8.40;;;5.45;;
60239;SDS011;46102;39.012;-7.064;2024-01-10T08:59:20;7.10;;;5.63;;
60239;SDS011;46102;39.012;-7.064;2024-01-10T09:01:21;10.68;;;5.78;;
60239;SDS011;46102;39.012;-7.064;2024-01-10T09:03:23;9.18;;;6.65;;
60239;SDS011;46102;39.012;-7.064;2024-01-10T09:05:23;7.45;;;4.75;;
60239;SDS011;46102;39.012;-7.064;2024-01-10T09:07:24;10.35;;;6.45;;
60239;SDS011;46102;39.012;-7.064;2024-01-10T09:09:25;11.65;;;8.60;;
60239;SDS011;46102;39.012;-7.064;2024-01-10T09:11:26;11.23;;;8.80;;
60239;SDS011;46102;39.012;-7.064;2024-01-10T09:13:27;15.40;;;8.93;;
60239;SDS011;46102;39.012;-7.064;2024-01-10T09:15:27;15.48;;;9.82;;
60239;SDS011;46102;39.012;-7.064;2024-01-10T09:17:28;12.38;;;8.43;;
60239;SDS011;46102;39.012;-7.064;2024-01-10T09:19:29;6.85;;;5.13;;
60239;SDS011;46102;39.012;-7.064;2024-01-10T09:21:31;4.32;;;3.92;;
60239;SDS011;46102;39.012;-7.064;2024-01-10T09:23:31;12.23;;;4.72;;
60239;SDS011;46102;39.012;-7.064;2024-01-10T09:25:32;4.90;;;3.88;;
60239;SDS011;46102;39.012;-7.064;2024-01-10T09:27:33;3.85;;;3.45;;
60239;SDS011;46102;39.012;-7.064;2024-01-10T09:29:34;5.15;;;4.18;;
60239;SDS011;46102;39.012;-7.064;2024-01-10T09:31:35;7.00;;;4.85;;
60239;SDS011;46102;39.012;-7.064;2024-01-10T09:33:36;7.60;;;4.90;;
60239;SDS011;46102;39.012;-7.064;2024-01-10T09:35:37;6.93;;;4.53;;
60239;SDS011;46102;39.012;-7.064;2024-01-10T09:37:38;6.10;;;4.07;;
60239;SDS011;46102;39.012;-7.064;2024-01-10T09:39:40;4.45;;;3.38;;
60239;SDS011;46102;39.012;-7.064;2024-01-10T09:41:44;4.72;;;2.92;;
60239;SDS011;46102;39.012;-7.064;2024-01-10T09:43:51;4.00;;;2.72;;
60239;SDS011;46102;39.012;-7.064;2024-01-10T09:45:51;3.47;;;2.40;;
60239;SDS011;46102;39.012;-7.064;2024-01-10T09:47:57;3.13;;;2.83;;
60239;SDS011;46102;39.012;-7.064;2024-01-10T09:49:59;3.45;;;2.60;;
60239;SDS011;46102;39.012;-7.064;2024-01-10T09:52:03;2.33;;;2.13;;
60239;SDS011;46102;39.012;-7.064;2024-01-10T09:54:05;3.63;;;2.88;;
60239;SDS011;46102;39.012;-7.064;2024-01-10T09:56:06;2.30;;;2.10;;
60239;SDS011;46102;39.012;-7.064;2024-01-10T09:58:08;1.80;;;1.70;;
60239;SDS011;46102;39.012;-7.064;2024-01-10T10:00:10;4.00;;;2.00;;
60239;SDS011;46102;39.012;-7.064;2024-01-10T10:02:11;1.85;;;1.75;;
60239;SDS011;46102;39.012;-7.064;2024-01-10T10:04:13;5.40;;;2.50;;
60239;SDS011;46102;39.012;-7.064;2024-01-10T10:06:18;2.40;;;2.10;;
60239;SDS011;46102;39.012;-7.064;2024-01-10T10:08:19;1.52;;;1.42;;
60239;SDS011;46102;39.012;-7.064;2024-01-10T10:10:22;3.65;;;2.00;;
60239;SDS011;46102;39.012;-7.064;2024-01-10T10:12:41;2.55;;;1.77;;
60239;SDS011;46102;39.012;-7.064;2024-01-10T10:14:44;2.72;;;1.90;;
60239;SDS011;46102;39.012;-7.064;2024-01-10T10:16:45;3.90;;;2.33;;
60239;SDS011;46102;39.012;-7.064;2024-01-10T10:18:46;2.65;;;2.08;;
60239;SDS011;46102;39.012;-7.064;2024-01-10T10:21:03;6.22;;;2.28;;
60239;SDS011;46102;39.012;-7.064;2024-01-10T10:23:11;2.15;;;1.83;;
60239;SDS011;46102;39.012;-7.064;2024-01-10T10:25:16;5.35;;;2.70;;
60239;SDS011;46102;39.012;-7.064;2024-01-10T10:27:17;2.45;;;2.10;;
60239;SDS011;46102;39.012;-7.064;2024-01-10T10:29:18;2.45;;;2.08;;
60239;SDS011;46102;39.012;-7.064;2024-01-10T10:31:19;4.07;;;2.10;;
60239;SDS011;46102;39.012;-7.064;2024-01-10T10:33:20;3.65;;;2.78;;
60239;SDS011;46102;39.012;-7.064;2024-01-10T10:35:21;3.72;;;2.50;;
60239;SDS011;46102;39.012;-7.064;2024-01-10T10:37:22;5.07;;;2.72;;
60239;SDS011;46102;39.012;-7.064;2024-01-10T10:39:23;3.85;;;2.35;;
60239;SDS011;46102;39.012;-7.064;2024-01-10T10:41:25;3.70;;;2.65;;
60239;SDS011;46102;39.012;-7.064;2024-01-10T10:43:30;3.67;;;3.03;;
60239;SDS011;46102;39.012;-7.064;2024-01-10T10:45:35;4.50;;;2.45;;
60239;SDS011;46102;39.012;-7.064;2024-01-10T10:47:37;7.20;;;2.60;;
60239;SDS011;46102;39.012;-7.064;2024-01-10T10:49:47;5.50;;;2.65;;
60239;SDS011;46102;39.012;-7.064;2024-01-10T10:51:52;3.60;;;2.92;;
60239;SDS011;46102;39.012;-7.064;2024-01-10T10:53:55;3.78;;;3.20;;
60239;SDS011;46102;39.012;-7.064;2024-01-10T10:55:58;3.65;;;3.05;;
60239;SDS011;46102;39.012;-7.064;2024-01-10T10:58:00;3.75;;;3.40;;
60239;SDS011;46102;39.012;-7.064;2024-01-10T11:00:05;3.28;;;2.97;;
60239;SDS011;46102;39.012;-7.064;2024-01-10T11:02:08;4.82;;;3.30;;
60239;SDS011;46102;39.012;-7.064;2024-01-10T11:04:11;2.83;;;2.50;;
60239;SDS011;46102;39.012;-7.064;2024-01-10T11:06:14;4.57;;;3.40;;
60239;SDS011;46102;39.012;-7.064;2024-01-10T11:08:16;4.47;;;3.50;;
60239;SDS011;46102;39.012;-7.064;2024-01-10T11:10:25;4.95;;;3.13;;
60239;SDS011;46102;39.012;-7.064;2024-01-10T11:19:37;8.05;;;4.53;;
60239;SDS011;46102;39.012;-7.064;2024-01-10T11:24:00;5.72;;;3.45;;
60239;SDS011;46102;39.012;-7.064;2024-01-10T11:26:03;4.85;;;3.65;;
60239;SDS011;46102;39.012;-7.064;2024-01-10T11:28:04;3.13;;;2.83;;
60239;SDS011;46102;39.012;-7.064;2024-01-10T11:30:05;4.55;;;3.00;;
60239;SDS011;46102;39.012;-7.064;2024-01-10T11:32:07;3.05;;;2.20;;
60239;SDS011;46102;39.012;-7.064;2024-01-10T11:34:13;2.95;;;1.85;;
60239;SDS011;46102;39.012;-7.064;2024-01-10T11:38:19;2.13;;;1.92;;
60239;SDS011;46102;39.012;-7.064;2024-01-10T11:42:46;1.58;;;1.45;;
60239;SDS011;46102;39.012;-7.064;2024-01-10T11:44:49;2.78;;;1.65;;
60239;SDS011;46102;39.012;-7.064;2024-01-10T11:46:52;2.25;;;1.63;;
60239;SDS011;46102;39.012;-7.064;2024-01-10T11:48:54;3.83;;;1.70;;
60239;SDS011;46102;39.012;-7.064;2024-01-10T11:50:59;8.25;;;2.75;;
60239;SDS011;46102;39.012;-7.064;2024-01-10T11:55:01;6.32;;;2.15;;
60239;SDS011;46102;39.012;-7.064;2024-01-10T11:57:09;3.77;;;1.80;;
60239;SDS011;46102;39.012;-7.064;2024-01-10T11:59:11;4.72;;;1.92;;
60239;SDS011;46102;39.012;-7.064;2024-01-10T12:01:13;4.07;;;1.65;;
60239;SDS011;46102;39.012;-7.064;2024-01-10T12:03:14;1.27;;;1.15;;
60239;SDS011;46102;39.012;-7.064;2024-01-10T12:05:16;4.97;;;1.20;;
60239;SDS011;46102;39.012;-7.064;2024-01-10T12:07:19;4.75;;;1.00;;
60239;SDS011;46102;39.012;-7.064;2024-01-10T12:09:20;2.60;;;1.90;;
60239;SDS011;46102;39.012;-7.064;2024-01-10T12:11:21;2.25;;;2.05;;
60239;SDS011;46102;39.012;-7.064;2024-01-10T12:13:21;7.00;;;2.63;;
60239;SDS011;46102;39.012;-7.064;2024-01-10T12:15:22;1.40;;;1.30;;